Time;durP1;ratioP1;P1;durP2;ratioP2;P2;SDS_P1;SDS_P2;PMS_P1;PMS_P2;Temp;Humidity;BMP_temperature;BMP_pressure;BME280_temperature;BME280_humidity;BME280_pressure;Samples;Min_cycle;Max_cycle;Signal;HPM_P1;HPM_P2
2022/05/19 00:01:27;;;;;;;2.40;2.20;;;;;;;18.50;62.06;98545.59;5054747;28;20220;-71
2022/05/19 00:03:54;;;;;;;3.20;2.70;;;;;;;18.42;62.61;98544.16;5054806;28;20205;-71
2022/05/19 00:06:21;;;;;;;3.57;2.37;;;;;;;18.33;63.23;98544.91;5054340;28;20216;-70
2022/05/19 00:08:47;;;;;;;5.00;2.53;;;;;;;18.30;63.07;98542.69;5054273;28;20232;-71
2022/05/19 00:11:17;;;;;;;4.07;2.40;;;;;;;18.26;63.66;98541.56;5054447;28;20245;-71
2022/05/19 00:13:44;;;;;;;2.97;2.53;;;;;;;18.24;64.18;98547.19;5054816;28;20201;-71
2022/05/19 00:16:11;;;;;;;4.60;2.77;;;;;;;18.24;63.25;98538.34;5054176;28;20664;-71
2022/05/19 00:18:38;;;;;;;4.47;2.90;;;;;;;18.17;63.60;98535.84;5054045;28;20229;-71
2022/05/19 00:21:05;;;;;;;5.00;2.80;;;;;;;18.09;63.92;98530.91;5054020;28;20266;-71
2022/05/19 00:23:32;;;;;;;2.90;2.53;;;;;;;18.03;64.48;98531.13;5054378;28;20217;-71
2022/05/19 00:25:58;;;;;;;4.90;2.83;;;;;;;18.02;64.52;98527.66;5054015;28;20691;-71
2022/05/19 00:28:25;;;;;;;4.33;2.90;;;;;;;18.00;65.17;98529.75;5054170;28;20229;-71
2022/05/19 00:30:51;;;;;;;4.23;2.80;;;;;;;17.99;65.61;98522.75;5054198;28;20231;-71
2022/05/19 00:33:18;;;;;;;4.03;2.70;;;;;;;17.97;65.48;98524.09;5054201;28;20201;-71
2022/05/19 00:35:44;;;;;;;3.00;2.70;;;;;;;17.94;65.83;98520.03;5054157;28;20212;-71
2022/05/19 00:38:11;;;;;;;4.63;2.67;;;;;;;17.90;66.55;98518.09;5054019;28;20237;-70
2022/05/19 00:40:39;;;;;;;3.30;2.63;;;;;;;17.89;66.57;98508.41;5053968;28;20225;-71
2022/05/19 00:43:06;;;;;;;3.80;2.97;;;;;;;17.83;67.16;98509.41;5054468;28;20624;-70
2022/05/19 00:45:51;;;;;;;4.80;3.00;;;;;;;17.77;67.64;98503.16;5053976;28;20209;-71
2022/05/19 00:48:28;;;;;;;5.97;3.00;;;;;;;17.79;68.26;98506.44;5053930;28;20232;-71
2022/05/19 00:51:01;;;;;;;6.50;3.40;;;;;;;17.80;67.79;98502.69;5053578;28;20659;-71
2022/05/19 00:53:34;;;;;;;5.23;3.50;;;;;;;17.72;67.86;98511.19;5053811;28;20209;-71
2022/05/19 00:56:06;;;;;;;5.87;3.20;;;;;;;17.66;68.47;98501.47;5053842;28;20243;-71
2022/05/19 00:58:54;;;;;;;4.27;3.17;;;;;;;17.61;68.59;98506.78;5053456;28;20738;-71
2022/05/19 01:01:22;;;;;;;5.17;3.37;;;;;;;17.56;68.96;98504.00;5053688;28;20580;-71
2022/05/19 01:03:55;;;;;;;3.87;3.40;;;;;;;17.53;69.32;98501.03;5053416;28;20209;-71
2022/05/19 01:06:24;;;;;;;4.30;3.33;;;;;;;17.46;69.72;98503.91;5053721;28;20190;-71
2022/05/19 01:08:58;;;;;;;4.67;3.47;;;;;;;17.43;69.25;98499.06;5053502;28;20229;-70
2022/05/19 01:11:25;;;;;;;6.77;3.07;;;;;;;17.44;69.08;98497.16;5053171;28;20668;-71
2022/05/19 01:13:52;;;;;;;3.73;3.33;;;;;;;17.43;69.03;98496.38;5053577;28;20200;-71
2022/05/19 01:16:19;;;;;;;4.03;3.23;;;;;;;17.37;69.19;98485.78;5053033;28;20722;-71
2022/05/19 01:18:47;;;;;;;5.23;3.77;;;;;;;17.35;69.23;98494.09;5053547;28;20228;-71
2022/05/19 01:21:17;;;;;;;5.17;3.07;;;;;;;17.24;70.32;98492.31;5053401;28;20225;-71
2022/05/19 01:24:16;;;;;;;4.43;3.50;;;;;;;17.25;70.07;98487.78;5053398;28;20209;-70
2022/05/19 01:26:46;;;;;;;3.97;3.03;;;;;;;17.16;70.91;98484.72;5053169;28;20193;-71
2022/05/19 01:29:15;;;;;;;4.00;3.60;;;;;;;17.17;70.46;98488.19;5053020;28;20235;-70
2022/05/19 01:31:50;;;;;;;3.40;3.10;;;;;;;17.18;70.64;98492.50;5053026;28;20664;-71
2022/05/19 01:34:18;;;;;;;5.77;3.50;;;;;;;17.10;71.15;98493.75;5053373;28;20204;-71
2022/05/19 01:36:45;;;;;;;4.13;3.60;;;;;;;17.09;71.60;98489.47;5053035;28;20213;-71
2022/05/19 01:39:15;;;;;;;5.13;3.67;;;;;;;17.10;70.41;98491.06;5053267;28;20241;-71
2022/05/19 01:41:51;;;;;;;4.63;3.20;;;;;;;17.10;70.31;98484.91;5053517;28;20229;-71
2022/05/19 01:44:22;;;;;;;8.07;3.80;;;;;;;17.05;70.77;98482.97;5053879;28;20193;-70
2022/05/19 01:46:58;;;;;;;5.53;3.97;;;;;;;16.99;72.43;98477.75;5053825;28;20196;-71
2022/05/19 01:49:30;;;;;;;5.43;3.80;;;;;;;16.87;71.77;98472.50;5035720;28;20602;-71
2022/05/19 01:52:07;;;;;;;6.40;4.27;;;;;;;16.86;71.90;98475.44;5053188;28;20209;-70
2022/05/19 01:55:23;;;;;;;4.60;3.50;;;;;;;16.87;71.68;98474.41;5036504;28;20204;-71
2022/05/19 01:57:57;;;;;;;5.07;4.00;;;;;;;16.83;71.31;98478.66;5046909;28;20236;-71
2022/05/19 02:00:25;;;;;;;7.10;4.60;;;;;;;16.73;72.45;98471.25;5035376;28;20583;-71
2022/05/19 02:02:59;;;;;;;8.53;4.50;;;;;;;16.71;71.58;98465.34;5053122;28;20247;-71
2022/05/19 02:05:43;;;;;;;7.37;4.23;;;;;;;16.61;72.74;98475.91;5035427;28;20188;-70
2022/05/19 02:08:21;;;;;;;6.37;4.53;;;;;;;16.63;73.27;98467.63;5053033;28;20229;-71
2022/05/19 02:10:51;;;;;;;5.13;4.03;;;;;;;16.66;72.43;98476.00;5052798;28;20208;-71
2022/05/19 02:13:19;;;;;;;5.40;4.10;;;;;;;16.66;72.25;98467.13;5052978;28;20206;-71
2022/05/19 02:15:49;;;;;;;6.20;4.20;;;;;;;16.61;72.44;98465.16;5052952;28;20208;-71
2022/05/19 02:18:17;;;;;;;6.13;4.60;;;;;;;16.59;72.37;98478.03;5052894;28;20236;-71
2022/05/19 02:20:46;;;;;;;6.90;4.50;;;;;;;16.57;73.23;98469.44;5052836;28;20229;-71
2022/05/19 02:23:15;;;;;;;4.70;4.23;;;;;;;16.53;73.90;98468.28;5052891;28;20212;-71
2022/05/19 02:25:42;;;;;;;6.07;3.70;;;;;;;16.45;74.30;98475.94;5052579;28;20296;-71
2022/05/19 02:28:18;;;;;;;4.67;3.80;;;;;;;16.43;74.01;98480.75;5053355;28;20236;-71
2022/05/19 02:30:45;;;;;;;5.50;3.90;;;;;;;16.42;74.69;98477.25;5056502;28;20208;-71
2022/05/19 02:33:16;;;;;;;4.37;3.60;;;;;;;16.40;74.40;98474.00;5056460;28;20221;-71
2022/05/19 02:35:44;;;;;;;4.80;4.00;;;;;;;16.42;74.42;98469.19;5056394;28;20205;-71
2022/05/19 02:38:12;;;;;;;6.30;4.10;;;;;;;16.41;73.31;98474.81;5056546;28;20236;-71
2022/05/19 02:40:40;;;;;;;4.20;3.80;;;;;;;16.21;75.16;98475.28;5056205;28;20235;-71
2022/05/19 02:43:07;;;;;;;6.80;4.10;;;;;;;16.26;75.09;98477.22;5057059;28;20212;-70
2022/05/19 02:45:34;;;;;;;5.20;3.47;;;;;;;16.22;75.69;98478.78;5056678;28;20211;-70
2022/05/19 02:48:02;;;;;;;3.93;3.20;;;;;;;16.20;75.95;98483.59;5056117;28;20225;-70
2022/05/19 02:50:29;;;;;;;4.77;3.07;;;;;;;16.16;75.58;98479.75;5056137;28;20205;-71
2022/05/19 02:52:55;;;;;;;3.80;3.50;;;;;;;16.12;75.63;98482.13;5056070;28;20213;-71
2022/05/19 02:55:21;;;;;;;5.90;3.53;;;;;;;16.09;75.94;98481.78;5056016;28;20202;-71
2022/05/19 02:57:51;;;;;;;4.33;3.37;;;;;;;16.03;75.63;98482.75;5055908;28;20233;-70
2022/05/19 03:00:22;;;;;;;4.27;3.47;;;;;;;15.93;76.82;98487.94;5055851;28;20228;-71
2022/05/19 03:02:49;;;;;;;5.27;3.10;;;;;;;15.97;76.05;98475.69;5055568;28;20277;-71
2022/05/19 03:05:22;;;;;;;5.20;3.77;;;;;;;15.93;76.17;98477.22;5055465;28;20205;-71
2022/05/19 03:07:48;;;;;;;6.10;3.17;;;;;;;15.89;76.86;98489.50;5055308;28;20592;-71
2022/05/19 03:10:16;;;;;;;4.67;3.37;;;;;;;15.77;77.48;98486.03;5055497;28;20220;-71
2022/05/19 03:12:43;;;;;;;6.03;3.53;;;;;;;15.78;77.19;98483.13;5055641;28;20201;-71
2022/05/19 03:15:10;;;;;;;6.67;3.77;;;;;;;15.67;77.68;98470.63;5055574;28;20218;-71
2022/05/19 03:17:37;;;;;;;4.10;3.30;;;;;;;15.62;78.99;98478.56;5055533;28;20229;-71
2022/05/19 03:20:06;;;;;;;5.07;3.30;;;;;;;15.62;78.54;98477.75;5055942;28;20209;-71
2022/05/19 03:22:33;;;;;;;5.57;3.83;;;;;;;15.58;78.06;98468.56;5055448;28;20201;-70
2022/05/19 03:24:59;;;;;;;4.57;3.90;;;;;;;15.55;78.37;98472.53;5055935;28;20236;-71
2022/05/19 03:27:25;;;;;;;4.20;3.80;;;;;;;15.59;78.87;98465.63;5055009;28;20229;-71
2022/05/19 03:29:53;;;;;;;3.43;3.10;;;;;;;15.60;78.82;98475.31;5055052;28;20668;-70
2022/05/19 03:32:20;;;;;;;3.93;3.37;;;;;;;15.61;77.92;98478.81;5054903;28;20205;-71
2022/05/19 03:34:47;;;;;;;4.37;2.77;;;;;;;15.54;77.70;98478.94;5055061;28;20614;-70
2022/05/19 03:37:14;;;;;;;3.20;2.90;;;;;;;15.54;78.00;98480.81;5055011;28;20206;-71
2022/05/19 03:39:40;;;;;;;2.87;2.67;;;;;;;15.46;79.34;98483.84;5054564;28;20208;-70
2022/05/19 03:42:08;;;;;;;3.30;2.97;;;;;;;15.45;77.99;98477.72;5054373;28;20236;-71
2022/05/19 03:44:35;;;;;;;4.30;3.20;;;;;;;15.40;79.10;98477.63;5054953;28;20232;-71
2022/05/19 03:47:03;;;;;;;4.53;3.10;;;;;;;15.35;79.28;98474.03;5054873;28;20217;-70
2022/05/19 03:49:29;;;;;;;4.27;3.20;;;;;;;15.28;79.31;98470.66;5054775;28;20237;-71
2022/05/19 03:51:56;;;;;;;3.60;3.07;;;;;;;15.25;79.81;98474.59;5054903;28;20200;-71
2022/05/19 03:54:22;;;;;;;3.83;3.43;;;;;;;15.32;79.76;98475.28;5054835;28;20554;-71
2022/05/19 03:56:48;;;;;;;5.53;3.67;;;;;;;15.41;79.98;98479.22;5054763;28;20209;-71
2022/05/19 03:59:15;;;;;;;4.73;3.23;;;;;;;15.39;80.13;98480.53;5054097;28;20229;-70
2022/05/19 04:01:41;;;;;;;3.80;3.50;;;;;;;15.37;79.90;98474.59;5054507;28;20225;-70
2022/05/19 04:04:08;;;;;;;3.80;3.47;;;;;;;15.46;78.89;98479.31;5054321;28;20216;-71
2022/05/19 04:06:35;;;;;;;4.03;3.17;;;;;;;15.52;77.96;98490.97;5054320;28;20215;-70
2022/05/19 04:09:04;;;;;;;5.83;3.53;;;;;;;15.56;77.64;98487.53;5054425;28;20236;-70
2022/05/19 04:11:31;;;;;;;4.17;3.40;;;;;;;15.56;78.10;98487.53;5054198;28;20232;-71
2022/05/19 04:13:58;;;;;;;4.43;3.40;;;;;;;15.52;78.23;98486.41;5054246;28;20733;-71
2022/05/19 04:16:25;;;;;;;3.80;3.20;;;;;;;15.55;78.58;98488.59;5055144;28;20213;-70
2022/05/19 04:18:51;;;;;;;5.43;3.50;;;;;;;15.62;79.21;98486.63;5054236;28;20225;-70
2022/05/19 04:21:19;;;;;;;5.93;3.83;;;;;;;15.62;78.42;98486.63;5054167;28;20225;-70
2022/05/19 04:23:46;;;;;;;4.27;3.87;;;;;;;15.75;79.32;98486.28;5054137;28;20213;-71
2022/05/19 04:26:12;;;;;;;5.60;4.00;;;;;;;15.77;79.15;98488.72;5053804;28;20217;-71
2022/05/19 04:28:38;;;;;;;4.87;4.10;;;;;;;15.90;77.75;98494.63;5054099;28;20225;-70
2022/05/19 04:31:05;;;;;;;6.10;4.33;;;;;;;15.94;77.42;98492.25;5054046;28;20206;-70
2022/05/19 04:33:31;;;;;;;5.57;4.97;;;;;;;15.91;76.93;98506.13;5053589;28;20212;-71
2022/05/19 04:35:57;;;;;;;5.53;4.00;;;;;;;15.96;78.66;98507.03;5053554;28;20668;-71
2022/05/19 04:38:24;;;;;;;7.97;4.37;;;;;;;16.06;77.58;98509.91;5053305;28;20229;-71
2022/05/19 04:40:51;;;;;;;10.27;4.23;;;;;;;16.13;77.74;98507.06;5053501;28;20233;-71
2022/05/19 04:43:22;;;;;;;6.23;4.27;;;;;;;16.18;78.80;98509.81;5053525;28;20201;-70
2022/05/19 04:45:50;;;;;;;7.30;4.40;;;;;;;16.20;78.93;98511.19;5053600;28;20190;-71
2022/05/19 04:48:16;;;;;;;8.37;4.90;;;;;;;16.30;77.11;98516.75;5053393;28;20223;-70
2022/05/19 04:50:43;;;;;;;7.50;5.27;;;;;;;16.36;76.03;98513.09;5053439;28;20564;-71
2022/05/19 04:53:10;;;;;;;7.43;4.87;;;;;;;16.45;74.68;98511.66;5052394;28;20205;-70
2022/05/19 04:55:37;;;;;;;9.13;5.87;;;;;;;16.59;73.44;98507.56;5053213;28;20216;-71
2022/05/19 04:58:05;;;;;;;7.80;5.07;;;;;;;16.90;73.66;98506.94;5053011;28;20228;-71
2022/05/19 05:00:31;;;;;;;8.83;5.70;;;;;;;17.30;68.25;98509.31;5053286;28;20208;-71
2022/05/19 05:02:58;;;;;;;8.90;5.00;;;;;;;17.68;66.08;98510.06;5053013;28;20205;-71
2022/05/19 05:05:24;;;;;;;7.70;4.57;;;;;;;18.08;63.26;98513.16;5053088;28;20212;-70
2022/05/19 05:07:50;;;;;;;6.27;4.90;;;;;;;18.46;61.75;98522.94;5052891;28;20236;-71
2022/05/19 05:10:17;;;;;;;7.33;4.73;;;;;;;18.59;60.87;98517.91;5052856;28;20216;-71
2022/05/19 05:12:43;;;;;;;7.73;4.43;;;;;;;18.54;61.18;98522.44;5053325;28;20201;-71
2022/05/19 05:15:11;;;;;;;6.93;4.47;;;;;;;18.35;62.00;98513.97;5053212;28;20205;-70
2022/05/19 05:17:38;;;;;;;8.57;4.37;;;;;;;18.20;62.35;98519.19;5053021;28;20225;-70
2022/05/19 05:20:07;;;;;;;10.17;4.30;;;;;;;17.80;62.96;98529.56;5052483;28;20687;-70
2022/05/19 05:22:36;;;;;;;10.43;4.37;;;;;;;17.75;63.95;98526.84;5051575;28;20268;-71
2022/05/19 05:25:06;;;;;;;4.17;3.77;;;;;;;17.71;65.29;98530.25;5052598;28;20238;-70
2022/05/19 05:27:32;;;;;;;7.57;4.13;;;;;;;17.69;65.40;98527.03;5052821;28;20232;-71
2022/05/19 05:29:58;;;;;;;4.57;3.93;;;;;;;17.65;64.97;98539.34;5052965;28;20257;-70
2022/05/19 05:32:25;;;;;;;6.27;4.23;;;;;;;17.66;64.53;98533.72;5052744;28;20217;-71
2022/05/19 05:34:51;;;;;;;12.17;4.83;;;;;;;17.64;64.36;98532.34;5052749;28;20205;-71
2022/05/19 05:37:18;;;;;;;6.93;4.40;;;;;;;17.54;64.39;98529.53;5052729;28;20229;-71
2022/05/19 05:39:44;;;;;;;6.77;4.47;;;;;;;17.62;63.56;98529.91;5052907;28;20205;-71
2022/05/19 05:42:10;;;;;;;6.73;4.70;;;;;;;17.73;63.23;98526.25;5052803;28;20251;-70
2022/05/19 05:44:37;;;;;;;5.90;3.90;;;;;;;17.80;62.33;98523.38;5052736;28;20212;-71
2022/05/19 05:47:04;;;;;;;9.73;3.90;;;;;;;17.96;61.54;98520.56;5052644;28;20205;-70
2022/05/19 05:49:30;;;;;;;6.63;3.40;;;;;;;17.99;61.02;98517.38;5052752;28;20214;-71
2022/05/19 05:51:56;;;;;;;6.57;3.83;;;;;;;18.05;60.38;98519.03;5052761;28;20203;-70
2022/05/19 05:54:23;;;;;;;8.87;4.20;;;;;;;18.19;60.45;98519.44;5052636;28;20299;-70
2022/05/19 05:56:50;;;;;;;5.23;3.30;;;;;;;18.35;59.99;98511.28;5052726;28;20212;-70
2022/05/19 05:59:17;;;;;;;7.00;3.20;;;;;;;18.28;59.79;98521.41;5052283;28;20275;-71
2022/05/19 06:01:43;;;;;;;4.67;3.10;;;;;;;18.30;59.50;98521.97;5052141;28;20228;-70
2022/05/19 06:04:10;;;;;;;5.93;3.30;;;;;;;18.26;59.42;98530.78;5054896;28;20216;-71
2022/05/19 06:06:36;;;;;;;5.67;3.50;;;;;;;18.50;58.85;98522.16;5056578;28;20201;-70
2022/05/19 06:09:03;;;;;;;7.27;3.47;;;;;;;18.82;57.59;98519.41;5056573;28;20221;-70
2022/05/19 06:11:30;;;;;;;5.60;3.53;;;;;;;18.81;56.89;98521.28;5055838;28;20657;-71
2022/05/19 06:13:57;;;;;;;6.23;3.40;;;;;;;18.76;57.50;98523.97;5055954;28;20509;-71
2022/05/19 06:16:23;;;;;;;5.63;3.27;;;;;;;18.95;57.33;98522.44;5056152;28;20209;-71
2022/05/19 06:18:49;;;;;;;6.63;3.00;;;;;;;19.08;57.09;98538.16;5056161;28;20232;-70
2022/05/19 06:21:16;;;;;;;6.20;3.10;;;;;;;18.95;56.78;98527.03;5055801;28;20233;-71
2022/05/19 06:23:42;;;;;;;5.30;3.10;;;;;;;19.21;56.72;98516.13;5056244;28;20205;-71
2022/05/19 06:26:14;;;;;;;5.57;2.73;;;;;;;19.45;56.60;98530.81;5056198;28;20205;-71
2022/05/19 06:28:41;;;;;;;7.33;2.67;;;;;;;19.21;56.58;98526.91;5054047;28;20252;-71
2022/05/19 06:31:07;;;;;;;3.90;2.70;;;;;;;19.26;56.91;98526.97;5054147;28;20220;-70
2022/05/19 06:33:36;;;;;;;5.90;3.10;;;;;;;19.45;58.25;98530.00;5054408;28;20201;-71
2022/05/19 06:36:09;;;;;;;5.40;2.77;;;;;;;19.43;57.05;98535.66;5054686;28;20209;-71
2022/05/19 06:38:36;;;;;;;3.50;2.57;;;;;;;19.44;57.22;98536.47;5054349;28;20322;-71
2022/05/19 06:43:42;;;;;;;5.33;2.80;;;;;;;19.60;56.71;98532.75;5054358;28;20248;-71
2022/05/19 06:46:09;;;;;;;8.20;2.90;;;;;;;19.92;56.49;98527.16;5056408;28;20209;-71
2022/05/19 06:48:35;;;;;;;4.63;2.83;;;;;;;20.04;55.94;98525.84;5055508;28;20726;-70
2022/05/19 06:51:02;;;;;;;7.03;2.97;;;;;;;20.13;55.09;98535.06;5055760;28;20205;-71
2022/05/19 06:53:29;;;;;;;4.93;2.83;;;;;;;20.07;56.24;98529.91;5055670;28;20201;-71
2022/05/19 06:55:55;;;;;;;5.80;2.37;;;;;;;20.20;55.02;98535.59;5055456;28;20553;-71
2022/05/19 06:58:22;;;;;;;7.53;2.53;;;;;;;20.15;55.46;98534.78;5055715;28;20595;-70
2022/05/19 07:00:48;;;;;;;7.57;2.93;;;;;;;20.17;55.53;98540.75;5055660;28;20227;-71
2022/05/19 07:03:15;;;;;;;4.53;2.90;;;;;;;20.37;55.71;98532.66;5055536;28;20232;-70
2022/05/19 07:05:42;;;;;;;5.77;2.63;;;;;;;20.63;55.28;98526.16;5055374;28;20205;-70
2022/05/19 07:08:08;;;;;;;5.80;2.53;;;;;;;20.78;55.07;98526.94;5055213;28;20225;-71
2022/05/19 07:10:35;;;;;;;5.33;2.80;;;;;;;20.83;54.44;98528.81;5055548;28;20213;-71
2022/05/19 07:13:02;;;;;;;5.73;3.00;;;;;;;20.93;54.22;98518.03;5055217;28;20572;-70
2022/05/19 07:15:29;;;;;;;5.93;2.63;;;;;;;20.81;54.41;98533.69;5053984;28;20596;-71
2022/05/19 07:17:55;;;;;;;6.60;3.03;;;;;;;20.81;54.55;98525.59;5055243;28;20221;-71
2022/05/19 07:23:08;;;;;;;6.33;2.80;;;;;;;20.88;54.30;98532.34;5055134;28;20654;-70
2022/05/19 07:25:35;;;;;;;7.27;3.03;;;;;;;21.03;54.65;98526.13;5055148;28;20216;-71
2022/05/19 07:28:01;;;;;;;5.53;2.63;;;;;;;21.32;55.02;98529.81;5055149;28;20232;-71
2022/05/19 07:30:28;;;;;;;8.60;3.30;;;;;;;21.39;54.89;98524.94;5054759;28;20216;-71
2022/05/19 07:32:54;;;;;;;6.63;2.80;;;;;;;21.44;55.56;98533.03;5054512;28;20201;-71
2022/05/19 07:35:21;;;;;;;6.10;3.00;;;;;;;21.62;54.27;98525.06;5054855;28;20205;-71
2022/05/19 07:37:48;;;;;;;6.33;3.13;;;;;;;21.58;53.69;98518.63;5054741;28;20251;-71
2022/05/19 07:40:16;;;;;;;4.50;2.90;;;;;;;21.72;53.78;98525.06;5054937;28;20201;-71
2022/05/19 07:42:42;;;;;;;7.90;2.70;;;;;;;21.77;53.90;98518.81;5054853;28;20268;-70
2022/05/19 07:45:10;;;;;;;4.17;2.70;;;;;;;21.88;54.19;98514.97;5055033;28;20209;-71
2022/05/19 07:47:37;;;;;;;5.87;2.77;;;;;;;21.87;53.43;98519.56;5054843;28;20225;-71
2022/05/19 07:50:05;;;;;;;5.13;2.73;;;;;;;22.02;54.30;98518.66;5054371;28;20695;-71
2022/05/19 07:52:32;;;;;;;4.97;2.57;;;;;;;21.96;54.23;98523.31;5054140;28;20197;-71
2022/05/19 07:54:58;;;;;;;3.77;2.60;;;;;;;22.23;53.53;98528.25;5054560;28;20209;-71
2022/05/19 07:57:25;;;;;;;5.15;2.65;;;;;;;22.35;52.44;98526.81;5054267;28;20236;-71
2022/05/19 07:59:51;;;;;;;3.75;2.40;;;;;;;22.46;52.72;98527.56;5053932;28;20216;-71
2022/05/19 08:02:18;;;;;;;5.40;2.60;;;;;;;22.74;50.46;98515.94;5048981;28;20298;-70
2022/05/19 08:04:44;;;;;;;3.42;2.47;;;;;;;22.73;50.66;98520.56;5051624;28;20211;-71
2022/05/19 08:07:10;;;;;;;3.78;2.70;;;;;;;22.92;51.39;98523.38;5054093;28;20668;-71
2022/05/19 08:17:50;;;;;;;2.92;2.35;;;;;;;23.32;50.77;98515.59;5053389;28;20247;-71
2022/05/19 08:20:17;;;;;;;5.13;2.80;;;;;;;23.42;51.36;98514.69;5054312;28;20229;-71
2022/05/19 08:22:43;;;;;;;3.92;2.45;;;;;;;23.44;51.61;98512.47;5054115;28;20232;-71
2022/05/19 08:25:10;;;;;;;3.63;2.50;;;;;;;23.40;50.50;98516.88;5052851;28;20672;-71
2022/05/19 08:27:36;;;;;;;3.60;2.33;;;;;;;23.70;50.05;98516.47;5052858;28;20246;-72
2022/05/19 08:30:04;;;;;;;5.20;2.60;;;;;;;23.80;50.58;98517.16;5053852;28;20201;-71
2022/05/19 08:32:30;;;;;;;3.00;2.35;;;;;;;24.09;49.33;98511.59;5054766;28;20209;-71
2022/05/19 08:34:57;;;;;;;3.70;2.42;;;;;;;24.25;48.62;98515.69;5053191;28;20291;-72
2022/05/19 08:37:23;;;;;;;3.40;2.20;;;;;;;23.90;48.43;98522.47;5053881;28;20636;-71
2022/05/19 08:39:50;;;;;;;3.92;2.50;;;;;;;23.86;48.51;98512.44;5053882;28;20212;-71
2022/05/19 08:42:18;;;;;;;3.33;2.58;;;;;;;23.92;47.82;98516.75;5054506;28;20283;-71
2022/05/19 08:44:53;;;;;;;3.65;2.60;;;;;;;23.98;48.32;98512.84;5034848;28;20210;-72
2022/05/19 08:47:25;;;;;;;3.10;2.58;;;;;;;24.07;49.11;98503.75;5052905;28;20235;-71
2022/05/19 08:49:58;;;;;;;4.28;2.30;;;;;;;24.39;48.04;98505.69;5053851;28;20189;-71
2022/05/19 08:52:28;;;;;;;4.50;2.22;;;;;;;24.62;47.27;98504.78;5054620;28;20193;-72
2022/05/19 08:54:57;;;;;;;2.40;2.20;;;;;;;24.45;47.20;98499.06;5053690;28;20213;-72
2022/05/19 08:57:52;;;;;;;3.95;2.30;;;;;;;24.71;48.35;98495.66;5052871;28;20225;-71
2022/05/19 09:00:31;;;;;;;3.03;2.50;;;;;;;25.02;47.01;98495.91;5052352;28;20212;-71
2022/05/19 09:03:16;;;;;;;3.38;2.50;;;;;;;25.18;47.03;98495.28;5035858;28;20213;-71
2022/05/19 09:06:03;;;;;;;3.90;2.60;;;;;;;25.40;46.01;98492.69;5053262;28;20562;-71
2022/05/19 09:08:51;;;;;;;2.53;2.33;;;;;;;25.37;46.48;98493.28;5052804;28;20273;-71
2022/05/19 09:11:25;;;;;;;3.90;2.40;;;;;;;25.49;45.82;98498.22;5032717;28;20679;-72
2022/05/19 09:14:21;;;;;;;2.70;2.42;;;;;;;25.42;47.68;98497.84;5015926;28;20202;-72
2022/05/19 09:16:48;;;;;;;4.35;2.50;;;;;;;25.55;46.64;98488.88;5032780;28;20199;-71
2022/05/19 09:19:36;;;;;;;4.13;2.40;;;;;;;25.68;46.41;98482.56;5042867;28;20229;-72
2022/05/19 09:22:08;;;;;;;2.90;2.60;;;;;;;25.89;44.54;98484.53;5036013;28;20213;-71
2022/05/19 09:24:36;;;;;;;2.50;2.30;;;;;;;26.13;44.31;98490.53;5035528;28;20205;-71
2022/05/19 09:27:03;;;;;;;4.68;2.78;;;;;;;26.11;44.99;98489.25;5052752;28;20215;-72
2022/05/19 09:29:50;;;;;;;4.30;2.50;;;;;;;26.02;43.73;98486.47;5053084;28;20209;-71
2022/05/19 09:32:23;;;;;;;2.80;2.50;;;;;;;25.92;43.98;98489.38;5053264;28;20231;-72
2022/05/19 09:34:53;;;;;;;2.90;2.25;;;;;;;25.67;44.40;98481.78;5051964;28;20208;-72
2022/05/19 09:37:43;;;;;;;2.78;2.50;;;;;;;26.23;45.08;98473.16;5053263;28;20227;-72
2022/05/19 09:40:12;;;;;;;3.25;2.40;;;;;;;26.78;43.58;98479.94;5056757;28;20635;-72
2022/05/19 09:42:58;;;;;;;2.60;2.40;;;;;;;26.58;43.16;98492.19;5056594;28;20231;-72
2022/05/19 09:45:27;;;;;;;3.58;2.40;;;;;;;26.63;42.96;98493.97;5056459;28;20639;-72
2022/05/19 09:48:14;;;;;;;4.30;2.50;;;;;;;26.78;43.49;98493.59;5057125;28;20236;-72
2022/05/19 09:50:46;;;;;;;5.32;2.38;;;;;;;26.66;43.87;98498.81;5056723;28;20223;-72
2022/05/19 09:53:37;;;;;;;3.95;2.65;;;;;;;27.03;43.94;98501.09;5056165;28;20185;-71
2022/05/19 09:56:09;;;;;;;3.45;2.50;;;;;;;27.01;44.01;98500.59;5056864;28;20203;-72
2022/05/19 09:58:39;;;;;;;6.45;2.88;;;;;;;27.08;45.21;98498.22;5053928;28;20304;-71
2022/05/19 10:01:15;;;;;;;6.07;2.95;;;;;;;26.96;41.95;98503.47;5041734;28;20202;-71
2022/05/19 10:03:51;;;;;;;2.70;2.40;;;;;;;27.07;43.64;98504.78;5055005;28;20691;-71
2022/05/19 10:06:21;;;;;;;6.53;2.67;;;;;;;27.21;43.80;98505.53;5056732;28;20189;-70
2022/05/19 10:08:57;;;;;;;7.00;2.80;;;;;;;27.30;42.60;98489.97;5056581;28;20667;-70
2022/05/19 10:11:28;;;;;;;8.48;3.00;;;;;;;27.54;42.99;98495.81;5056149;28;20571;-70
2022/05/19 10:14:03;;;;;;;3.10;2.45;;;;;;;27.41;42.08;98499.50;5055304;28;20671;-70
2022/05/19 10:16:51;;;;;;;3.72;2.90;;;;;;;27.03;42.70;98501.09;5055967;28;20308;-71
2022/05/19 10:19:45;;;;;;;3.53;2.63;;;;;;;27.60;43.71;98491.84;5056630;28;20240;-70
2022/05/19 10:22:39;;;;;;;3.97;3.22;;;;;;;27.73;43.85;98496.38;5037827;28;20734;-71
2022/05/19 10:25:24;;;;;;;5.70;3.08;;;;;;;27.89;44.35;98494.78;5058289;28;20194;-71
2022/05/19 10:31:18;;;;;;;4.30;3.13;;;;;;;27.97;41.56;98485.81;5020058;28;20311;-71
2022/05/19 10:34:15;;;;;;;7.55;2.90;;;;;;;28.09;42.22;98488.72;5055626;28;20255;-71
2022/05/19 10:36:57;;;;;;;7.55;3.00;;;;;;;28.26;42.87;98480.47;5055829;28;20189;-71
2022/05/19 10:39:51;;;;;;;5.90;2.97;;;;;;;28.11;40.67;98483.72;5056389;28;20205;-71
2022/05/19 10:42:27;;;;;;;4.97;3.15;;;;;;;28.19;42.71;98471.97;5055198;28;20271;-71
2022/05/19 10:45:26;;;;;;;5.60;2.90;;;;;;;27.66;40.51;98471.44;5055922;28;20196;-71
2022/05/19 10:48:17;;;;;;;3.15;2.60;;;;;;;27.55;41.74;98469.31;5035925;28;20222;-71
2022/05/19 10:50:53;;;;;;;6.63;3.65;;;;;;;27.33;42.03;98469.44;5035625;28;20191;-71
2022/05/19 10:53:39;;;;;;;2.95;2.63;;;;;;;27.47;42.30;98461.91;5002355;28;20552;-71
2022/05/19 10:56:22;;;;;;;3.53;2.60;;;;;;;27.99;42.46;98455.41;5042758;28;20212;-70
2022/05/19 10:59:27;;;;;;;5.95;2.85;;;;;;;27.82;42.09;98455.41;5037373;28;20229;-71
2022/05/19 11:01:56;;;;;;;5.63;3.70;;;;;;;28.29;42.45;98462.63;5055689;28;20205;-71
2022/05/19 11:04:34;;;;;;;5.65;2.95;;;;;;;28.31;41.96;98454.91;5054714;28;20213;-71
2022/05/19 11:07:37;;;;;;;5.22;3.00;;;;;;;28.58;41.91;98449.09;5055038;28;20259;-70
2022/05/19 11:10:14;;;;;;;7.22;3.00;;;;;;;28.35;41.14;98443.00;5055492;28;20664;-70
2022/05/19 11:13:15;;;;;;;3.95;3.15;;;;;;;28.76;42.20;98443.22;5054945;28;20189;-71
2022/05/19 11:15:53;;;;;;;3.95;3.03;;;;;;;28.67;41.27;98447.16;5055838;28;20201;-71
2022/05/19 11:18:34;;;;;;;3.55;2.70;;;;;;;28.79;39.79;98439.84;5053233;28;20307;-71
2022/05/19 11:21:07;;;;;;;5.50;3.67;;;;;;;28.37;40.33;98456.34;5031698;28;20212;-72
2022/05/19 11:23:50;;;;;;;5.95;3.00;;;;;;;28.34;42.60;98452.31;5017643;28;20206;-71
2022/05/19 11:26:43;;;;;;;4.85;3.05;;;;;;;28.45;40.58;98445.44;5035440;28;20197;-71
2022/05/19 11:29:38;;;;;;;3.45;3.03;;;;;;;28.15;40.97;98443.66;5038485;28;20224;-71
2022/05/19 11:32:20;;;;;;;3.83;3.42;;;;;;;27.65;41.07;98434.31;5047660;28;20208;-71
2022/05/19 11:34:53;;;;;;;3.80;3.20;;;;;;;28.00;42.18;98430.50;5054764;28;20636;-71
2022/05/19 11:37:46;;;;;;;6.15;2.90;;;;;;;28.15;40.62;98437.38;5054775;28;20229;-71
2022/05/19 11:40:39;;;;;;;5.53;3.03;;;;;;;28.24;41.70;98424.50;5054309;28;20201;-71
2022/05/19 11:43:39;;;;;;;3.80;3.20;;;;;;;28.63;41.01;98418.81;5054656;28;20216;-71
2022/05/19 11:46:15;;;;;;;3.97;2.88;;;;;;;28.75;41.45;98421.69;5054564;28;20636;-71
2022/05/19 11:57:37;;;;;;;3.33;3.03;;;;;;;28.43;41.12;98427.75;5054537;28;20730;-71
2022/05/19 12:00:05;;;;;;;3.95;2.85;;;;;;;28.44;41.86;98426.59;5052565;28;20678;-71
2022/05/19 12:02:39;;;;;;;4.32;2.95;;;;;;;28.62;41.45;98414.50;5047759;28;20235;-71
2022/05/19 12:05:16;;;;;;;7.60;3.05;;;;;;;28.58;41.82;98411.59;5036824;28;20215;-70
2022/05/19 12:07:55;;;;;;;5.00;2.95;;;;;;;28.40;41.35;98410.03;5054002;28;20239;-71
2022/05/19 12:10:32;;;;;;;5.05;2.78;;;;;;;28.92;42.37;98403.25;5052995;28;20217;-70
2022/05/19 12:13:00;;;;;;;7.20;3.25;;;;;;;29.02;41.58;98404.88;5054728;28;20197;-71
2022/05/19 12:15:26;;;;;;;3.53;3.22;;;;;;;28.94;43.14;98402.94;5054369;28;20251;-71
2022/05/19 12:18:29;;;;;;;6.13;3.65;;;;;;;28.93;41.11;98398.59;5054097;28;20347;-71
2022/05/19 12:21:01;;;;;;;4.43;3.17;;;;;;;28.48;39.95;98414.69;5039683;28;20209;-71